Time;durP1;ratioP1;P1;durP2;ratioP2;P2;SDS_P1;SDS_P2;PMS_P1;PMS_P2;Temp;Humidity;BMP_temperature;BMP_pressure;BME280_temperature;BME280_humidity;BME280_pressure;Samples;Min_cycle;Max_cycle;Signal;HPM_P1;HPM_P2
2024/03/31 00:00:33;;;;;;;32.47;22.15;;;;;;;7.00;100.00;99838.34;5043201;28;20045;-77
2024/03/31 00:02:58;;;;;;;31.23;21.63;;;;;;;7.02;100.00;99840.09;5042047;28;20029;-76
2024/03/31 00:05:24;;;;;;;32.80;22.60;;;;;;;7.00;100.00;99827.81;5044173;28;20021;-77
2024/03/31 00:07:49;;;;;;;32.33;22.60;;;;;;;7.00;100.00;99814.69;5041327;28;20041;-77
2024/03/31 00:10:14;;;;;;;32.45;22.80;;;;;;;6.95;100.00;99812.91;5043638;28;20037;-77
2024/03/31 00:12:44;;;;;;;33.05;23.08;;;;;;;6.90;100.00;99819.94;5042700;28;20033;-72
2024/03/31 00:15:09;;;;;;;32.38;23.13;;;;;;;6.87;100.00;99817.25;5043134;28;20476;-66
2024/03/31 00:17:34;;;;;;;31.92;22.73;;;;;;;6.78;100.00;99815.47;5042867;28;20036;-65
2024/03/31 00:20:00;;;;;;;31.40;22.60;;;;;;;6.69;100.00;99806.72;5043105;28;20030;-74
2024/03/31 00:22:25;;;;;;;32.88;23.40;;;;;;;6.60;100.00;99797.06;5044070;28;20472;-70
2024/03/31 00:24:50;;;;;;;33.28;24.40;;;;;;;6.49;100.00;99797.00;5040438;28;20085;-70
2024/03/31 00:27:16;;;;;;;33.63;23.92;;;;;;;6.41;100.00;99791.72;5041361;28;20079;-66
2024/03/31 00:29:41;;;;;;;33.50;24.52;;;;;;;6.36;100.00;99787.31;5043422;28;20022;-66
2024/03/31 00:32:06;;;;;;;33.40;24.92;;;;;;;6.23;100.00;99789.00;5042359;28;20373;-66
2024/03/31 00:34:32;;;;;;;32.92;24.35;;;;;;;6.18;100.00;99794.22;5041580;28;20380;-67
2024/03/31 00:36:57;;;;;;;32.92;24.58;;;;;;;6.13;100.00;99795.06;5043592;28;20025;-65
2024/03/31 00:39:23;;;;;;;33.50;24.63;;;;;;;6.03;100.00;99791.50;5039140;28;20039;-65
2024/03/31 00:41:49;;;;;;;33.72;24.65;;;;;;;5.98;100.00;99793.22;5043702;28;20044;-65
2024/03/31 00:44:14;;;;;;;33.15;24.92;;;;;;;6.00;100.00;99802.88;5043674;28;20040;-65
2024/03/31 00:46:39;;;;;;;32.35;24.38;;;;;;;5.89;100.00;99802.75;5045221;28;20040;-66
2024/03/31 00:49:05;;;;;;;34.65;26.27;;;;;;;5.91;100.00;99800.13;5046484;28;20052;-65
2024/03/31 00:51:30;;;;;;;34.63;26.40;;;;;;;5.83;100.00;99807.09;5044992;28;20179;-67
2024/03/31 00:53:55;;;;;;;35.83;27.45;;;;;;;5.82;100.00;99803.56;5047301;28;20056;-65
2024/03/31 00:56:21;;;;;;;35.55;28.58;;;;;;;5.81;100.00;99799.22;5044206;28;20025;-67
2024/03/31 00:58:46;;;;;;;35.30;27.73;;;;;;;5.81;100.00;99793.97;5046970;28;20028;-65
2024/03/31 01:01:12;;;;;;;35.85;28.90;;;;;;;5.83;100.00;99797.47;5043367;28;20140;-65
2024/03/31 01:03:37;;;;;;;36.50;29.77;;;;;;;5.80;100.00;99812.31;5045833;28;20040;-65
2024/03/31 01:06:16;;;;;;;38.80;31.63;;;;;;;5.80;100.00;99828.94;5046321;28;20041;-66
2024/03/31 01:08:42;;;;;;;39.15;32.83;;;;;;;5.81;100.00;99822.81;5046568;28;20892;-67
2024/03/31 01:11:08;;;;;;;39.10;33.00;;;;;;;5.81;100.00;99824.53;5045605;28;20021;-66
2024/03/31 01:13:33;;;;;;;39.78;34.25;;;;;;;5.86;100.00;99836.84;5045190;28;20333;-65
2024/03/31 01:16:00;;;;;;;40.70;36.00;;;;;;;5.88;100.00;99835.13;5046434;28;20064;-66
2024/03/31 01:18:25;;;;;;;41.25;36.33;;;;;;;5.91;100.00;99836.88;5043986;28;20017;-68
2024/03/31 01:20:51;;;;;;;43.60;37.60;;;;;;;5.97;100.00;99825.53;5046925;28;20040;-67
2024/03/31 01:23:19;;;;;;;43.67;38.88;;;;;;;6.07;100.00;99837.88;5043896;28;20033;-66
2024/03/31 01:25:44;;;;;;;43.78;38.75;;;;;;;6.18;100.00;99846.72;5046422;28;20043;-67
2024/03/31 01:28:10;;;;;;;44.10;38.83;;;;;;;6.24;100.00;99835.38;5044678;28;20483;-65
2024/03/31 01:30:35;;;;;;;43.17;38.00;;;;;;;6.28;100.00;99832.78;5044960;28;20026;-66
2024/03/31 01:33:00;;;;;;;42.10;37.50;;;;;;;6.33;100.00;99829.31;5046005;28;20025;-66
2024/03/31 01:35:26;;;;;;;40.88;36.40;;;;;;;6.35;100.00;99812.69;5043803;28;20076;-67
2024/03/31 01:37:52;;;;;;;41.92;37.33;;;;;;;6.39;100.00;99805.69;5045339;28;20051;-68
2024/03/31 01:40:18;;;;;;;42.22;37.63;;;;;;;6.42;100.00;99792.56;5043454;28;20477;-66
2024/03/31 01:42:47;;;;;;;42.63;38.03;;;;;;;6.43;100.00;99789.97;5046010;28;20048;-65
2024/03/31 01:45:22;;;;;;;41.53;36.75;;;;;;;6.44;100.00;99793.47;5044206;28;20021;-66
2024/03/31 01:47:47;;;;;;;41.25;36.67;;;;;;;6.41;100.00;99796.97;5046245;28;20047;-67
2024/03/31 01:50:12;;;;;;;40.22;35.88;;;;;;;6.39;100.00;99803.06;5044093;28;20030;-67
2024/03/31 01:52:38;;;;;;;40.88;36.38;;;;;;;6.35;100.00;99809.16;5045193;28;20025;-72
2024/03/31 01:55:03;;;;;;;40.97;36.47;;;;;;;6.30;100.00;99803.03;5045621;28;20029;-74
2024/03/31 01:57:28;;;;;;;40.20;35.80;;;;;;;6.27;100.00;99804.75;5044666;28;20021;-78
2024/03/31 01:59:54;;;;;;;40.13;35.67;;;;;;;6.26;100.00;99803.03;5046047;28;20045;-75
2024/03/31 02:02:19;;;;;;;40.13;35.83;;;;;;;6.23;100.00;99808.25;5043462;28;20443;-66
2024/03/31 02:04:44;;;;;;;40.17;35.80;;;;;;;6.22;100.00;99811.75;5045669;28;20127;-76
2024/03/31 02:07:11;;;;;;;40.53;35.80;;;;;;;6.23;100.00;99824.00;5044172;28;20388;-77
2024/03/31 02:09:36;;;;;;;41.38;36.88;;;;;;;6.27;100.00;99824.88;5044622;28;20042;-74
2024/03/31 02:12:01;;;;;;;40.30;35.88;;;;;;;6.28;100.00;99824.91;5045473;28;20387;-76
2024/03/31 02:14:27;;;;;;;39.45;35.15;;;;;;;6.34;100.00;99825.81;5042919;28;20523;-67
2024/03/31 02:16:53;;;;;;;39.70;35.35;;;;;;;6.33;100.00;99819.66;5046264;28;20029;-68
2024/03/31 02:19:18;;;;;;;41.08;35.15;;;;;;;6.31;100.00;99805.66;5043000;28;20096;-66
2024/03/31 02:21:43;;;;;;;39.40;35.20;;;;;;;6.30;100.00;99797.78;5044873;28;20435;-65
2024/03/31 02:24:09;;;;;;;39.00;34.53;;;;;;;6.27;100.00;99796.88;5044026;28;20362;-65
2024/03/31 02:26:35;;;;;;;39.90;34.80;;;;;;;6.27;100.00;99790.78;5042322;28;20472;-65
2024/03/31 02:29:00;;;;;;;39.08;34.72;;;;;;;6.23;100.00;99786.38;5045200;28;20390;-67
2024/03/31 02:31:26;;;;;;;39.10;34.17;;;;;;;6.27;100.00;99796.88;5042440;28;20056;-70
2024/03/31 02:33:51;;;;;;;38.92;33.97;;;;;;;6.25;100.00;99796.00;5045696;28;20054;-71
2024/03/31 02:36:16;;;;;;;38.10;33.90;;;;;;;6.27;100.00;99791.63;5042774;28;20040;-71
2024/03/31 02:38:42;;;;;;;39.05;34.17;;;;;;;6.24;100.00;99796.88;5044529;28;20034;-71
2024/03/31 02:41:07;;;;;;;38.17;32.58;;;;;;;6.26;100.00;99800.41;5042368;28;20037;-69
2024/03/31 02:43:33;;;;;;;39.22;34.30;;;;;;;6.27;100.00;99796.88;5043244;28;20380;-67
2024/03/31 02:45:58;;;;;;;38.55;34.35;;;;;;;6.27;100.00;99799.50;5044959;28;20495;-67
2024/03/31 02:48:23;;;;;;;38.40;33.75;;;;;;;6.30;100.00;99793.41;5042228;28;20380;-68
2024/03/31 02:50:49;;;;;;;37.45;32.78;;;;;;;6.31;100.00;99783.81;5045315;28;20387;-71
2024/03/31 02:53:14;;;;;;;37.78;33.30;;;;;;;6.32;100.00;99780.28;5042591;28;20472;-69
2024/03/31 02:55:39;;;;;;;37.78;33.20;;;;;;;6.33;100.00;99771.56;5043838;28;20087;-70
2024/03/31 02:58:05;;;;;;;37.70;33.17;;;;;;;6.35;100.00;99770.69;5044023;28;20104;-71
2024/03/31 03:00:30;;;;;;;38.55;32.58;;;;;;;6.39;100.00;99761.06;5042228;28;20508;-71
2024/03/31 03:02:55;;;;;;;39.08;33.47;;;;;;;6.45;100.00;99761.09;5045579;28;20362;-66
2024/03/31 03:05:21;;;;;;;38.60;31.98;;;;;;;6.48;100.00;99755.88;5040871;28;20049;-66
2024/03/31 03:07:46;;;;;;;38.08;31.90;;;;;;;6.54;100.00;99761.13;5044711;28;20111;-66
2024/03/31 03:10:11;;;;;;;37.85;31.92;;;;;;;6.55;100.00;99748.88;5042942;28;20079;-67
2024/03/31 03:12:37;;;;;;;37.60;30.83;;;;;;;6.60;100.00;99737.50;5043390;28;20033;-68
2024/03/31 03:15:03;;;;;;;38.05;31.73;;;;;;;6.62;100.00;99729.66;5044253;28;20379;-67
2024/03/31 03:17:28;;;;;;;37.97;31.02;;;;;;;6.64;100.00;99722.66;5042418;28;20442;-70
2024/03/31 03:19:53;;;;;;;38.55;31.55;;;;;;;6.66;100.00;99720.91;5044986;28;20387;-74
2024/03/31 03:22:19;;;;;;;39.45;31.48;;;;;;;6.71;100.00;99718.28;5042229;28;20376;-75
2024/03/31 03:24:45;;;;;;;40.85;32.63;;;;;;;6.74;100.00;99715.66;5044561;28;20029;-73
2024/03/31 03:27:10;;;;;;;36.35;28.63;;;;;;;6.79;100.00;99734.94;5045160;28;20033;-75
2024/03/31 03:29:35;;;;;;;37.33;29.08;;;;;;;6.77;100.00;99741.94;5043879;28;20523;-77
2024/03/31 03:32:00;;;;;;;35.65;27.52;;;;;;;6.78;100.00;99744.56;5042453;28;20128;-75
2024/03/31 03:34:26;;;;;;;35.60;26.42;;;;;;;6.82;100.00;99742.84;5045225;28;20060;-69
2024/03/31 03:36:51;;;;;;;34.08;25.48;;;;;;;6.85;100.00;99750.72;5041861;28;20124;-77
2024/03/31 03:39:17;;;;;;;33.92;25.25;;;;;;;6.86;100.00;99748.94;5044309;28;20063;-70
2024/03/31 03:41:43;;;;;;;33.25;24.85;;;;;;;6.88;100.00;99755.97;5042647;28;20033;-66
2024/03/31 03:44:09;;;;;;;31.98;23.23;;;;;;;6.89;100.00;99756.88;5043547;28;20099;-67
2024/03/31 03:46:34;;;;;;;32.72;23.67;;;;;;;6.90;100.00;99762.13;5043423;28;20529;-66
2024/03/31 03:48:59;;;;;;;32.28;22.83;;;;;;;6.93;100.00;99761.22;5041665;28;20474;-66
2024/03/31 03:51:24;;;;;;;31.38;22.48;;;;;;;6.90;100.00;99759.50;5044618;28;20049;-73
2024/03/31 03:53:50;;;;;;;30.45;21.60;;;;;;;6.93;100.00;99761.22;5041283;28;20029;-73
2024/03/31 03:56:15;;;;;;;32.35;22.70;;;;;;;6.93;100.00;99743.72;5043392;28;20033;-69
2024/03/31 03:58:40;;;;;;;32.05;21.73;;;;;;;6.93;100.00;99745.47;5042372;28;20037;-66
2024/03/31 04:01:06;;;;;;;31.35;22.02;;;;;;;6.95;100.00;99735.84;5041926;28;20053;-67
2024/03/31 04:03:32;;;;;;;30.42;20.75;;;;;;;6.97;100.00;99740.25;5043448;28;20024;-66
2024/03/31 04:05:58;;;;;;;30.63;20.35;;;;;;;6.98;100.00;99726.22;5041118;28;20437;-66
2024/03/31 04:08:24;;;;;;;30.58;20.33;;;;;;;6.96;100.00;99725.34;5044164;28;20037;-66
2024/03/31 04:10:49;;;;;;;31.20;20.08;;;;;;;6.96;100.00;99725.34;5040920;28;20484;-66
2024/03/31 04:13:15;;;;;;;28.60;18.65;;;;;;;6.96;100.00;99722.72;5043503;28;20469;-66
2024/03/31 04:15:41;;;;;;;30.17;19.63;;;;;;;6.97;100.00;99729.72;5042413;28;20547;-68
2024/03/31 04:18:07;;;;;;;29.45;18.95;;;;;;;6.98;100.00;99730.59;5045875;28;20033;-66
2024/03/31 04:20:32;;;;;;;29.67;19.27;;;;;;;7.00;100.00;99722.72;5047266;28;20029;-66
2024/03/31 04:22:57;;;;;;;29.05;18.92;;;;;;;6.96;100.00;99717.47;5043661;28;20049;-66
2024/03/31 04:25:22;;;;;;;29.75;18.88;;;;;;;6.95;100.00;99713.06;5047118;28;20173;-66
2024/03/31 04:27:51;;;;;;;29.58;19.15;;;;;;;6.96;100.00;99706.06;5043766;28;20051;-71
2024/03/31 04:30:16;;;;;;;30.00;19.08;;;;;;;6.94;100.00;99702.56;5047257;28;20041;-68
2024/03/31 04:32:42;;;;;;;30.58;19.17;;;;;;;6.93;100.00;99701.69;5045965;28;20036;-72
2024/03/31 04:35:07;;;;;;;30.80;19.73;;;;;;;6.92;100.00;99701.69;5046212;28;20079;-72
2024/03/31 04:37:32;;;;;;;29.77;19.30;;;;;;;6.90;100.00;99704.31;5045691;28;20025;-66
2024/03/31 04:39:58;;;;;;;30.45;19.52;;;;;;;6.92;100.00;99699.06;5044653;28;20033;-68
2024/03/31 04:42:23;;;;;;;29.85;19.17;;;;;;;6.91;100.00;99694.69;5047769;28;20040;-70
2024/03/31 04:44:51;;;;;;;30.13;19.27;;;;;;;6.90;100.00;99690.28;5044713;28;20026;-72
2024/03/31 04:47:17;;;;;;;30.35;19.38;;;;;;;6.88;100.00;99677.16;5047306;28;20033;-70
2024/03/31 04:49:43;;;;;;;30.88;20.10;;;;;;;6.88;100.00;99676.28;5045647;28;20116;-66
2024/03/31 04:52:08;;;;;;;30.85;19.83;;;;;;;6.86;100.00;99668.41;5045677;28;20030;-66
2024/03/31 04:54:33;;;;;;;32.65;20.58;;;;;;;6.85;100.00;99658.75;5047259;28;20037;-67
2024/03/31 04:56:59;;;;;;;31.58;20.23;;;;;;;6.87;100.00;99648.25;5044341;28;20057;-66
2024/03/31 04:59:24;;;;;;;32.03;21.27;;;;;;;6.86;100.00;99647.38;5047452;28;20083;-66
2024/03/31 05:01:49;;;;;;;33.45;21.25;;;;;;;6.89;100.00;99646.53;5044235;28;20129;-66
2024/03/31 05:04:15;;;;;;;33.10;21.95;;;;;;;6.87;100.00;99650.88;5048826;28;20098;-66
2024/03/31 05:06:40;;;;;;;33.08;21.67;;;;;;;6.86;100.00;99667.50;5045206;28;20037;-66
2024/03/31 05:09:06;;;;;;;32.75;21.23;;;;;;;6.87;100.00;99667.50;5046438;28;20040;-67
2024/03/31 05:11:31;;;;;;;33.80;22.08;;;;;;;6.82;100.00;99677.16;5044415;28;20025;-70
2024/03/31 05:13:58;;;;;;;35.67;23.38;;;;;;;6.85;100.00;99676.28;5047352;28;20029;-66
2024/03/31 05:16:24;;;;;;;34.75;23.70;;;;;;;6.84;100.00;99675.41;5043958;28;20037;-75
2024/03/31 05:18:51;;;;;;;35.35;23.30;;;;;;;6.84;100.00;99683.28;5046739;28;20695;-70
2024/03/31 05:21:16;;;;;;;35.38;24.08;;;;;;;6.82;100.00;99682.41;5044518;28;20033;-75
2024/03/31 05:23:45;;;;;;;37.22;25.25;;;;;;;6.83;100.00;99678.91;5045734;28;20036;-66
2024/03/31 05:26:12;;;;;;;37.10;25.17;;;;;;;6.82;100.00;99678.91;5045322;28;20453;-68
2024/03/31 05:28:37;;;;;;;37.42;25.35;;;;;;;6.83;100.00;99678.03;5044318;28;20022;-69
2024/03/31 05:31:03;;;;;;;38.35;26.92;;;;;;;6.80;100.00;99669.28;5046112;28;20037;-66
2024/03/31 05:33:29;;;;;;;39.60;26.92;;;;;;;6.81;100.00;99667.50;5043657;28;20384;-70
2024/03/31 05:35:54;;;;;;;39.58;27.52;;;;;;;6.82;100.00;99666.66;5047194;28;20028;-66
2024/03/31 05:38:20;;;;;;;40.40;28.63;;;;;;;6.86;100.00;99671.03;5042703;28;20469;-65
2024/03/31 05:40:45;;;;;;;39.85;28.88;;;;;;;6.88;100.00;99677.16;5045937;28;20029;-66
2024/03/31 05:43:11;;;;;;;40.83;29.08;;;;;;;6.88;100.00;99677.16;5045006;28;20468;-65
2024/03/31 05:45:38;;;;;;;40.47;29.67;;;;;;;6.93;100.00;99674.53;5044517;28;20111;-66
2024/03/31 05:48:06;;;;;;;41.08;30.05;;;;;;;6.96;100.00;99659.66;5045851;28;20032;-68
2024/03/31 05:50:32;;;;;;;41.88;30.40;;;;;;;6.95;100.00;99652.63;5043923;28;20444;-66
2024/03/31 05:52:57;;;;;;;42.35;30.58;;;;;;;6.95;100.00;99657.03;5046738;28;20029;-66
2024/03/31 05:55:23;;;;;;;42.25;31.52;;;;;;;6.95;100.00;99663.16;5042996;28;20036;-66
2024/03/31 05:57:48;;;;;;;41.72;31.10;;;;;;;6.96;100.00;99659.66;5045984;28;20094;-66
2024/03/31 06:00:14;;;;;;;43.05;33.13;;;;;;;7.00;100.00;99659.66;5043784;28;20075;-67
2024/03/31 06:02:39;;;;;;;42.35;32.33;;;;;;;7.02;100.00;99653.53;5044413;28;20042;-68
2024/03/31 06:05:06;;;;;;;43.80;32.78;;;;;;;7.09;100.00;99654.38;5045439;28;20055;-66
2024/03/31 06:07:31;;;;;;;43.45;32.70;;;;;;;7.17;100.00;99651.78;5043267;28;20026;-67
2024/03/31 06:09:57;;;;;;;43.47;32.85;;;;;;;7.29;100.00;99664.88;5046450;28;20064;-66
2024/03/31 06:12:23;;;;;;;43.13;33.03;;;;;;;7.37;100.00;99659.59;5038627;28;20060;-67
2024/03/31 06:14:48;;;;;;;43.13;32.45;;;;;;;7.46;100.00;99657.00;5045750;28;20029;-66
2024/03/31 06:17:14;;;;;;;42.80;32.85;;;;;;;7.47;100.00;99654.34;5043990;28;20064;-66
2024/03/31 06:19:39;;;;;;;41.53;32.83;;;;;;;7.48;100.00;99652.59;5044172;28;20451;-67
2024/03/31 06:22:04;;;;;;;42.17;33.13;;;;;;;7.45;100.00;99653.47;5045129;28;20037;-68
2024/03/31 06:24:30;;;;;;;41.33;31.98;;;;;;;7.43;100.00;99649.09;5043190;28;20041;-68
2024/03/31 06:26:56;;;;;;;42.17;32.80;;;;;;;7.42;100.00;99635.06;5044749;28;20025;-70
2024/03/31 06:29:22;;;;;;;42.45;33.78;;;;;;;7.45;100.00;99642.06;5042669;28;20426;-66
2024/03/31 06:31:47;;;;;;;42.50;33.80;;;;;;;7.48;100.00;99639.44;5045347;28;20024;-68
2024/03/31 06:34:12;;;;;;;44.35;33.95;;;;;;;7.62;100.00;99632.41;5042477;28;20033;-66
2024/03/31 06:36:38;;;;;;;42.85;34.58;;;;;;;7.74;100.00;99636.72;5043655;28;20152;-67
2024/03/31 06:39:03;;;;;;;41.45;33.25;;;;;;;7.79;100.00;99640.25;5045354;28;20021;-66
2024/03/31 06:41:28;;;;;;;41.22;32.97;;;;;;;7.79;100.00;99644.59;5041129;28;20388;-68
2024/03/31 06:43:54;;;;;;;40.25;32.28;;;;;;;7.75;100.00;99645.53;5044374;28;20021;-66
2024/03/31 06:46:19;;;;;;;40.10;32.83;;;;;;;7.73;100.00;99636.75;5042788;28;20034;-71
2024/03/31 06:48:44;;;;;;;39.88;32.38;;;;;;;7.74;100.00;99649.03;5043119;28;20033;-73
2024/03/31 06:51:10;;;;;;;41.15;32.95;;;;;;;7.75;100.00;99653.41;5043822;28;20049;-66
2024/03/31 06:53:35;;;;;;;41.22;33.08;;;;;;;7.74;100.00;99643.75;5042955;28;20032;-67
2024/03/31 06:56:00;;;;;;;40.55;33.25;;;;;;;7.74;100.00;99641.13;5044894;28;20040;-66
2024/03/31 06:58:26;;;;;;;41.00;31.83;;;;;;;7.76;100.00;99647.25;5042226;28;20037;-73
2024/03/31 07:01:01;;;;;;;39.72;32.13;;;;;;;7.81;100.00;99645.50;5044642;28;20053;-69
2024/03/31 07:03:27;;;;;;;40.03;32.10;;;;;;;7.82;100.00;99647.22;5036735;28;20047;-66
2024/03/31 07:05:52;;;;;;;40.22;33.08;;;;;;;7.89;100.00;99637.56;5045395;28;20025;-67
2024/03/31 07:08:18;;;;;;;39.13;31.85;;;;;;;7.99;100.00;99640.16;5041193;28;20092;-67
2024/03/31 07:10:43;;;;;;;39.10;31.55;;;;;;;8.19;100.00;99640.06;5043618;28;20052;-66
2024/03/31 07:13:08;;;;;;;39.00;31.08;;;;;;;8.40;100.00;99646.09;5043637;28;20487;-67
2024/03/31 07:15:34;;;;;;;39.45;31.17;;;;;;;8.64;100.00;99645.09;5041982;28;20120;-68
2024/03/31 07:18:07;;;;;;;36.50;28.77;;;;;;;8.68;100.00;99641.56;5044885;28;20029;-67
2024/03/31 07:20:37;;;;;;;36.55;28.80;;;;;;;8.72;100.00;99634.50;5040964;28;20021;-71
2024/03/31 07:23:04;;;;;;;35.05;28.08;;;;;;;8.69;100.00;99632.78;5043067;28;20075;-74
2024/03/31 07:25:31;;;;;;;33.97;26.85;;;;;;;8.70;100.00;99634.50;5041567;28;20033;-77
2024/03/31 07:27:57;;;;;;;34.83;27.17;;;;;;;8.79;100.00;99630.06;5044612;28;20106;-70
2024/03/31 07:30:22;;;;;;;35.08;27.25;;;;;;;8.84;100.00;99631.78;5041932;28;20141;-73
2024/03/31 07:32:47;;;;;;;34.90;26.67;;;;;;;8.94;100.00;99629.97;5043228;28;20048;-76
2024/03/31 07:35:13;;;;;;;32.90;25.90;;;;;;;9.02;100.00;99619.34;5042921;28;20021;-67
2024/03/31 07:37:38;;;;;;;35.38;27.50;;;;;;;9.22;100.00;99617.38;5042239;28;20480;-69
2024/03/31 07:40:04;;;;;;;31.73;24.67;;;;;;;9.32;100.00;99612.91;5043827;28;20021;-70
2024/03/31 07:42:29;;;;;;;31.95;23.75;;;;;;;9.38;100.00;99618.09;5041902;28;20031;-75
2024/03/31 07:44:55;;;;;;;31.13;23.00;;;;;;;9.42;100.00;99619.84;5044776;28;20025;-76
2024/03/31 07:47:20;;;;;;;31.85;24.55;;;;;;;9.61;100.00;99619.66;5041735;28;20384;-76
2024/03/31 07:49:45;;;;;;;32.85;23.85;;;;;;;9.87;100.00;99605.25;5043447;28;20064;-77
2024/03/31 07:52:11;;;;;;;30.83;21.83;;;;;;;9.88;100.00;99599.94;5042816;28;20025;-77
2024/03/31 07:54:36;;;;;;;30.45;21.98;;;;;;;9.95;100.00;99603.41;5042506;28;20037;-75
2024/03/31 07:57:01;;;;;;;29.42;21.48;;;;;;;9.98;100.00;99606.00;5042666;28;20515;-68
2024/03/31 07:59:27;;;;;;;30.80;21.63;;;;;;;10.19;100.00;99593.38;5040851;28;20493;-66
2024/03/31 08:01:54;;;;;;;30.27;21.30;;;;;;;10.29;100.00;99598.53;5042842;28;20080;-67
2024/03/31 08:04:20;;;;;;;29.02;20.33;;;;;;;10.33;100.00;99594.06;5041765;28;20460;-67
2024/03/31 08:06:45;;;;;;;29.20;19.67;;;;;;;10.45;100.00;99599.19;5043139;28;20049;-67
2024/03/31 08:09:10;;;;;;;27.90;18.70;;;;;;;10.62;100.00;99595.44;5042504;28;20021;-68
2024/03/31 08:11:36;;;;;;;29.83;19.10;;;;;;;10.76;100.00;99598.75;5041930;28;20108;-67
2024/03/31 08:14:01;;;;;;;28.73;18.65;;;;;;;10.91;100.00;99591.47;5043758;28;20068;-65
2024/03/31 08:16:27;;;;;;;25.38;16.45;;;;;;;10.93;100.00;99582.56;5039605;28;20038;-65
2024/03/31 08:18:53;;;;;;;26.77;16.48;;;;;;;10.96;100.00;99589.59;5043875;28;20033;-65
2024/03/31 08:21:18;;;;;;;27.15;16.67;;;;;;;11.02;100.00;99584.19;5040009;28;20032;-64
2024/03/31 08:23:44;;;;;;;26.73;16.58;;;;;;;10.98;100.00;99579.88;5042771;28;20136;-65
2024/03/31 08:26:09;;;;;;;25.63;16.05;;;;;;;10.90;100.00;99585.28;5040025;28;20029;-65
2024/03/31 08:28:34;;;;;;;26.33;15.70;;;;;;;10.93;100.00;99590.50;5043132;28;20036;-68
2024/03/31 08:31:00;;;;;;;25.23;15.00;;;;;;;11.03;100.00;99593.88;5040862;28;20045;-70
2024/03/31 08:33:25;;;;;;;25.75;15.05;;;;;;;11.18;100.00;99594.50;5042847;28;20029;-66
2024/03/31 08:35:51;;;;;;;25.67;15.27;;;;;;;11.44;100.00;99594.03;5040954;28;20081;-66
2024/03/31 08:38:17;;;;;;;24.98;14.57;;;;;;;11.72;100.00;99586.41;5043145;28;20021;-65
2024/03/31 08:40:46;;;;;;;24.50;14.27;;;;;;;12.17;100.00;99577.53;5042057;28;20487;-65
2024/03/31 08:43:18;;;;;;;22.65;12.27;;;;;;;12.63;100.00;99579.13;5040993;28;20388;-66
2024/03/31 08:45:43;;;;;;;22.92;12.00;;;;;;;12.61;100.00;99573.00;5042190;28;20096;-66
2024/03/31 08:48:11;;;;;;;22.80;11.90;;;;;;;12.47;100.00;99570.69;5041735;28;20054;-66
2024/03/31 08:50:38;;;;;;;22.65;11.45;;;;;;;12.33;100.00;99560.41;5043126;28;20086;-65
2024/03/31 08:53:04;;;;;;;24.05;10.68;;;;;;;12.40;100.00;99568.22;5041145;28;20116;-66
2024/03/31 08:55:29;;;;;;;22.05;10.20;;;;;;;12.77;100.00;99562.91;5043672;28;20128;-72
2024/03/31 08:57:55;;;;;;;20.73;9.07;;;;;;;13.34;100.00;99558.78;5039912;28;20036;-66
2024/03/31 09:00:20;;;;;;;21.88;8.75;;;;;;;13.83;100.00;99567.13;5041576;28;20540;-70
2024/03/31 09:02:47;;;;;;;20.83;7.38;;;;;;;13.86;100.00;99550.25;5041381;28;20033;-78
2024/03/31 09:05:12;;;;;;;22.13;7.30;;;;;;;14.05;100.00;99545.25;5045063;28;20032;-73
2024/03/31 09:07:38;;;;;;;20.20;6.80;;;;;;;14.56;100.00;99543.66;5046826;28;20021;-66
2024/03/31 09:10:05;;;;;;;20.38;6.38;;;;;;;15.10;100.00;99541.84;5044389;28;20116;-67
2024/03/31 09:12:31;;;;;;;20.70;6.78;;;;;;;15.40;100.00;99534.59;5043266;28;20087;-66
2024/03/31 09:14:56;;;;;;;19.67;5.88;;;;;;;15.63;100.00;99547.06;5046046;28;20032;-67
2024/03/31 09:17:22;;;;;;;19.85;5.80;;;;;;;15.66;100.00;99524.78;5044149;28;20373;-70
2024/03/31 09:19:48;;;;;;;20.23;5.93;;;;;;;15.75;100.00;99518.22;5046235;28;20433;-67
2024/03/31 09:22:14;;;;;;;20.08;5.18;;;;;;;15.89;100.00;99531.94;5045185;28;20546;-66
2024/03/31 09:24:41;;;;;;;19.45;5.20;;;;;;;16.28;100.00;99523.31;5044830;28;20060;-66
2024/03/31 09:27:07;;;;;;;19.80;4.90;;;;;;;16.88;100.00;99528.00;5046151;28;20032;-66
2024/03/31 09:29:32;;;;;;;18.58;4.38;;;;;;;17.27;100.00;99523.66;5042857;28;20029;-76
2024/03/31 09:32:05;;;;;;;18.88;4.70;;;;;;;16.96;100.00;99531.19;5045639;28;20260;-71
2024/03/31 09:34:31;;;;;;;19.77;4.57;;;;;;;16.40;100.00;99521.94;5040343;28;20037;-70
2024/03/31 09:36:56;;;;;;;16.02;4.10;;;;;;;15.91;100.00;99529.19;5047131;28;20029;-73
2024/03/31 09:39:22;;;;;;;18.20;4.30;;;;;;;15.71;100.00;99519.25;5043653;28;20025;-67
2024/03/31 09:41:51;;;;;;;19.85;4.10;;;;;;;16.42;100.00;99524.53;5045874;28;20472;-66
2024/03/31 09:44:16;;;;;;;14.95;3.83;;;;;;;17.18;100.00;99516.91;5044593;28;20099;-67
2024/03/31 09:46:42;;;;;;;18.38;4.30;;;;;;;17.47;100.00;99526.28;5044898;28;20072;-67
2024/03/31 09:49:12;;;;;;;17.85;3.90;;;;;;;18.29;100.00;99526.09;5045841;28;20494;-67
2024/03/31 09:51:41;;;;;;;17.02;4.18;;;;;;;18.92;100.00;99529.28;5044512;28;20431;-66
2024/03/31 09:54:13;;;;;;;17.55;3.90;;;;;;;18.42;100.00;99525.47;5045767;28;20013;-66
2024/03/31 09:56:52;;;;;;;16.45;3.83;;;;;;;17.59;100.00;99530.22;5044296;28;20029;-65
2024/03/31 09:59:22;;;;;;;19.58;4.10;;;;;;;16.92;100.00;99526.94;5043981;28;20494;-65
2024/03/31 10:01:49;;;;;;;16.27;3.47;;;;;;;16.73;100.00;99525.00;5045373;28;20049;-65
2024/03/31 10:04:26;;;;;;;17.08;3.13;;;;;;;17.58;100.00;99531.16;5044272;28;20360;-66
2024/03/31 10:06:52;;;;;;;17.25;3.20;;;;;;;18.04;100.00;99533.53;5045843;28;20562;-67
2024/03/31 10:09:18;;;;;;;18.40;3.10;;;;;;;19.04;100.00;99535.81;5043810;28;20048;-67
2024/03/31 10:11:45;;;;;;;14.60;2.70;;;;;;;18.57;100.00;99535.44;5044812;28;20380;-67
2024/03/31 10:14:11;;;;;;;17.23;2.90;;;;;;;18.25;100.00;99529.00;5044563;28;20037;-66
2024/03/31 10:16:38;;;;;;;16.92;3.00;;;;;;;19.12;100.00;99529.13;5023498;28;20064;-66
2024/03/31 10:19:04;;;;;;;14.65;2.75;;;;;;;19.64;100.00;99517.47;5046106;28;20124;-66
2024/03/31 10:21:30;;;;;;;16.50;3.03;;;;;;;19.35;100.00;99527.03;5042507;28;20112;-66
2024/03/31 10:23:59;;;;;;;17.67;2.90;;;;;;;19.00;100.00;99524.38;5038480;28;20096;-67
2024/03/31 10:26:26;;;;;;;17.92;3.33;;;;;;;19.38;100.00;99516.16;5045927;28;20108;-68
2024/03/31 10:28:52;;;;;;;14.48;2.70;;;;;;;20.11;100.00;99518.50;5042925;28;20028;-66
2024/03/31 10:31:18;;;;;;;16.42;2.92;;;;;;;21.06;100.00;99516.63;5044764;28;20366;-69
2024/03/31 10:33:43;;;;;;;15.30;2.70;;;;;;;21.58;100.00;99516.16;5044490;28;20098;-68
2024/03/31 10:36:12;;;;;;;19.20;2.80;;;;;;;21.82;100.00;99520.94;5043675;28;20369;-66
2024/03/31 10:38:43;;;;;;;17.40;3.10;;;;;;;22.02;100.00;99519.69;5044797;28;20029;-68
2024/03/31 10:41:09;;;;;;;14.13;2.80;;;;;;;22.58;100.00;99511.56;5043274;28;20108;-71
2024/03/31 10:43:36;;;;;;;17.48;2.80;;;;;;;22.14;100.00;99512.63;5045469;28;20040;-68
2024/03/31 10:46:01;;;;;;;17.15;2.90;;;;;;;21.02;100.00;99498.97;5042490;28;20025;-75
2024/03/31 10:48:27;;;;;;;17.83;3.00;;;;;;;19.97;100.00;99492.44;5045557;28;20036;-73
2024/03/31 10:50:52;;;;;;;17.25;2.70;;;;;;;19.10;100.00;99504.22;5042625;28;20100;-71
2024/03/31 10:53:27;;;;;;;17.75;2.80;;;;;;;18.90;100.00;99496.34;5044325;28;20120;-71
2024/03/31 10:55:52;;;;;;;17.33;2.83;;;;;;;18.79;100.00;99500.41;5042501;28;20033;-66
2024/03/31 10:58:18;;;;;;;15.88;2.85;;;;;;;18.96;100.00;99488.00;5044363;28;20044;-65
2024/03/31 11:00:44;;;;;;;18.08;2.90;;;;;;;18.91;100.00;99496.28;5042189;28;20053;-66
2024/03/31 11:03:10;;;;;;;19.50;2.80;;;;;;;18.64;100.00;99493.19;5043604;28;20117;-66
2024/03/31 11:05:38;;;;;;;14.93;2.53;;;;;;;18.05;100.00;99490.69;5044828;28;20464;-66
2024/03/31 11:08:04;;;;;;;16.83;2.80;;;;;;;17.66;100.00;99494.25;5046245;28;20021;-69
2024/03/31 11:10:31;;;;;;;18.05;2.58;;;;;;;17.35;100.00;99489.47;5041916;28;20029;-66